Time;durP1;ratioP1;P1;durP2;ratioP2;P2;SDS_P1;SDS_P2;PMS_P1;PMS_P2;Temp;Humidity;BMP_temperature;BMP_pressure;BME280_temperature;BME280_humidity;BME280_pressure;Samples;Min_cycle;Max_cycle;Signal;HPM_P1;HPM_P2
2022/09/12 00:00:50;;;;;;;2.67;1.48;;;;;;;;;;5032418;28;20212;-85
2022/09/12 00:03:15;;;;;;;1.57;1.47;;;9.90;99.90;;;;;;5033716;28;20188;-85
2022/09/12 00:05:43;;;;;;;0.98;0.82;;;;;;;;;;5034373;28;20252;-85
2022/09/12 00:08:09;;;;;;;1.37;1.27;;;10.10;99.90;;;;;;5032929;28;20181;-86
2022/09/12 00:10:39;;;;;;;1.20;1.10;;;10.90;99.90;;;;;;5033848;28;20181;-85
2022/09/12 00:13:05;;;;;;;0.83;0.83;;;10.10;99.90;;;;;;5033013;28;20212;-84
2022/09/12 00:15:31;;;;;;;1.37;1.13;;;11.20;99.90;;;;;;5033888;28;20637;-84
2022/09/12 00:17:57;;;;;;;1.37;1.27;;;;;;;;;;5034058;28;20235;-85
2022/09/12 00:20:23;;;;;;;1.13;1.03;;;;;;;;;;5033535;28;20665;-84
2022/09/12 00:22:49;;;;;;;3.50;1.20;;;;;;;;;;5032630;28;20198;-84
2022/09/12 00:25:15;;;;;;;1.60;1.23;;;10.20;99.90;;;;;;5033774;28;20246;-84
2022/09/12 00:27:40;;;;;;;4.87;2.00;;;10.10;99.90;;;;;;5032760;28;20180;-84
2022/09/12 00:30:06;;;;;;;1.27;1.17;;;10.10;99.90;;;;;;5033937;28;20254;-85
2022/09/12 00:32:33;;;;;;;1.37;1.30;;;10.10;99.90;;;;;;5033144;28;20189;-85
2022/09/12 00:34:58;;;;;;;1.23;1.17;;;10.30;99.90;;;;;;5033516;28;20212;-85
2022/09/12 00:37:24;;;;;;;1.17;1.10;;;;;;;;;;5032544;28;20215;-85
2022/09/12 00:39:50;;;;;;;2.53;0.90;;;;;;;;;;5032499;28;20219;-83
2022/09/12 00:42:16;;;;;;;1.00;1.00;;;10.50;99.90;;;;;;5033104;28;20210;-84
2022/09/12 00:44:44;;;;;;;1.07;1.00;;;10.10;99.90;;;;;;5033292;28;20188;-84
2022/09/12 00:47:16;;;;;;;1.23;1.10;;;10.10;99.90;;;;;;5032380;28;20180;-84
2022/09/12 00:49:48;;;;;;;0.90;0.90;;;10.30;99.90;;;;;;5033580;28;20342;-84
2022/09/12 00:52:20;;;;;;;0.90;0.90;;;10.00;99.90;;;;;;5033254;28;20164;-84
2022/09/12 00:55:01;;;;;;;1.63;1.53;;;11.90;99.90;;;;;;5033727;28;20571;-84
2022/09/12 00:57:36;;;;;;;1.43;1.33;;;10.30;99.90;;;;;;5032977;28;20168;-84
2022/09/12 01:00:14;;;;;;;1.83;1.60;;;9.80;99.90;;;;;;5033536;28;20204;-84
2022/09/12 01:02:42;;;;;;;1.63;1.53;;;10.20;99.90;;;;;;5033039;28;20286;-85
2022/09/12 01:05:09;;;;;;;1.33;1.23;;;10.60;99.90;;;;;;5033360;28;20177;-85
2022/09/12 01:07:39;;;;;;;2.10;1.90;;;10.00;99.90;;;;;;5032606;28;20181;-85
2022/09/12 01:10:07;;;;;;;2.57;2.37;;;10.10;99.90;;;;;;5032289;28;20197;-85
2022/09/12 01:12:33;;;;;;;1.10;1.10;;;10.20;99.90;;;;;;5032841;28;20177;-84
2022/09/12 01:15:00;;;;;;;0.90;0.90;;;;;;;;;;5031736;28;20177;-85
2022/09/12 01:17:47;;;;;;;0.93;0.93;;;10.00;99.90;;;;;;5032894;28;20199;-85
2022/09/12 01:20:50;;;;;;;1.50;1.40;;;10.00;99.90;;;;;;5033094;28;20246;-85
2022/09/12 01:23:40;;;;;;;1.27;1.20;;;10.10;99.90;;;;;;5032861;28;20214;-85
2022/09/12 01:26:14;;;;;;;1.20;1.10;;;10.00;99.90;;;;;;5033139;28;20167;-85
2022/09/12 01:29:17;;;;;;;1.60;1.50;;;9.80;99.90;;;;;;5033159;28;20165;-85
2022/09/12 01:31:59;;;;;;;4.10;1.60;;;10.00;99.90;;;;;;5023950;28;20227;-85
2022/09/12 01:34:38;;;;;;;2.93;2.00;;;9.80;99.90;;;;;;5032773;28;20165;-85
2022/09/12 01:37:20;;;;;;;1.33;1.23;;;10.20;99.90;;;;;;5032453;28;20167;-85
2022/09/12 01:39:46;;;;;;;1.67;1.57;;;;;;;;;;5031508;28;20235;-85
2022/09/12 01:42:30;;;;;;;8.70;1.40;;;10.00;99.90;;;;;;5030692;28;20188;-86
2022/09/12 01:45:19;;;;;;;3.83;1.73;;;10.00;99.90;;;;;;5032079;28;20195;-85
2022/09/12 01:47:55;;;;;;;1.40;1.30;;;9.80;99.90;;;;;;5031407;28;20238;-85
2022/09/12 01:50:26;;;;;;;1.27;1.13;;;9.60;99.90;;;;;;5031467;28;20234;-85
2022/09/12 01:53:11;;;;;;;1.53;1.40;;;10.00;99.90;;;;;;5031578;28;20180;-85
2022/09/12 01:55:55;;;;;;;1.13;1.03;;;10.10;99.90;;;;;;5031362;28;20177;-85
2022/09/12 01:58:29;;;;;;;1.00;1.00;;;10.00;99.90;;;;;;5032530;28;20220;-84
2022/09/12 02:01:05;;;;;;;2.33;1.17;;;9.70;99.90;;;;;;5032776;28;20271;-84
2022/09/12 02:03:38;;;;;;;1.77;1.67;;;10.00;99.90;;;;;;5032342;28;20161;-85
2022/09/12 02:06:11;;;;;;;1.47;1.37;;;10.10;99.90;;;;;;5032438;28;20636;-85
2022/09/12 02:08:43;;;;;;;1.00;1.00;;;10.00;99.90;;;;;;5032496;28;20203;-85
2022/09/12 02:11:10;;;;;;;1.37;1.27;;;10.40;99.90;;;;;;5031521;28;20184;-85
2022/09/12 02:13:45;;;;;;;1.10;1.10;;;10.20;99.90;;;;;;5031957;28;20206;-85
2022/09/12 02:16:19;;;;;;;2.03;1.33;;;10.00;99.90;;;;;;5032976;28;20175;-85
2022/09/12 02:18:49;;;;;;;1.10;1.00;;;9.90;99.90;;;;;;5033020;28;20256;-84
2022/09/12 02:21:18;;;;;;;1.80;1.53;;;9.80;99.90;;;;;;5036205;28;20645;-85
2022/09/12 02:23:49;;;;;;;2.77;1.70;;;10.20;99.90;;;;;;5035607;28;20668;-85
2022/09/12 02:26:24;;;;;;;1.37;1.27;;;10.00;99.90;;;;;;5035839;28;20200;-85
2022/09/12 02:28:50;;;;;;;1.10;1.00;;;10.00;99.90;;;;;;5035798;28;20218;-85
2022/09/12 02:31:32;;;;;;;1.53;1.43;;;9.90;99.90;;;;;;5036049;28;20184;-85
2022/09/12 02:34:00;;;;;;;1.60;1.23;;;9.90;99.90;;;;;;5036076;28;20271;-85
2022/09/12 02:36:31;;;;;;;1.23;1.13;;;10.20;99.90;;;;;;5035956;28;20176;-85
2022/09/12 02:38:59;;;;;;;0.90;0.90;;;10.50;99.90;;;;;;5035839;28;20165;-84
2022/09/12 02:41:24;;;;;;;1.13;1.03;;;9.90;99.90;;;;;;5035765;28;20207;-85
2022/09/12 02:43:51;;;;;;;1.70;1.50;;;;;;;;;;5035545;28;20185;-85
2022/09/12 02:46:29;;;;;;;1.10;0.97;;;10.00;99.90;;;;;;5035818;28;20246;-84
2022/09/12 02:48:55;;;;;;;1.93;1.53;;;10.00;99.90;;;;;;5034199;28;20259;-85
2022/09/12 02:51:21;;;;;;;1.43;1.33;;;10.20;99.90;;;;;;5034367;28;20200;-85
2022/09/12 02:53:47;;;;;;;0.90;0.90;;;9.90;99.90;;;;;;5033840;28;20185;-85
2022/09/12 02:56:21;;;;;;;1.23;1.17;;;9.90;99.90;;;;;;5035218;28;20180;-84
2022/09/12 02:58:47;;;;;;;1.40;1.30;;;10.10;99.90;;;;;;5035152;28;20587;-85
2022/09/12 03:01:19;;;;;;;1.57;1.47;;;9.70;99.90;;;;;;5037751;28;20248;-85
2022/09/12 03:04:02;;;;;;;1.33;0.80;;;9.80;99.90;;;;;;5036198;28;20199;-84
2022/09/12 03:06:58;;;;;;;1.27;1.17;;;10.00;99.90;;;;;;5035497;28;20263;-85
2022/09/12 03:09:50;;;;;;;1.13;1.10;;;9.60;99.90;;;;;;5034088;28;20552;-84
2022/09/12 03:12:41;;;;;;;0.98;0.98;;;10.10;99.90;;;;;;5035025;28;20177;-84
2022/09/12 03:15:51;;;;;;;1.10;1.10;;;9.90;99.90;;;;;;5035419;28;20271;-84
2022/09/12 03:18:42;;;;;;;1.80;1.20;;;9.80;99.90;;;;;;5035291;28;20169;-84
2022/09/12 03:21:14;;;;;;;1.37;0.83;;;10.00;99.90;;;;;;5017476;28;20266;-84
2022/09/12 03:23:48;;;;;;;1.03;0.97;;;10.20;99.90;;;;;;5034520;28;20535;-84
2022/09/12 03:26:35;;;;;;;0.93;0.93;;;10.00;99.90;;;;;;5034989;28;20167;-84
2022/09/12 03:29:03;;;;;;;1.03;1.03;;;10.10;99.90;;;;;;5034299;28;20200;-84
2022/09/12 03:31:30;;;;;;;1.63;1.37;;;;;;;;;;5034642;28;20176;-83
2022/09/12 03:33:56;;;;;;;1.17;1.13;;;;;;;;;;5026873;28;20173;-86
2022/09/12 03:36:25;;;;;;;4.43;1.03;;;10.00;99.90;;;;;;5025281;28;20267;-86
2022/09/12 03:38:52;;;;;;;1.00;1.00;;;10.00;99.90;;;;;;5026869;28;20180;-86
2022/09/12 03:41:17;;;;;;;1.43;1.33;;;10.40;99.90;;;;;;5024753;28;20221;-87
2022/09/12 03:43:44;;;;;;;1.93;1.10;;;;;;;;;;5027420;28;20672;-85
2022/09/12 03:46:10;;;;;;;1.30;1.07;;;10.10;99.90;;;;;;5022791;28;20223;-86
2022/09/12 03:48:35;;;;;;;1.43;1.10;;;10.00;99.90;;;;;;5013479;28;20588;-86
2022/09/12 03:51:06;;;;;;;0.87;0.87;;;9.70;99.90;;;;;;5017424;28;20292;-86
2022/09/12 03:53:33;;;;;;;3.77;2.07;;;9.90;99.90;;;;;;5014249;28;20272;-88
2022/09/12 03:55:59;;;;;;;0.73;0.73;;;9.80;99.90;;;;;;5012883;28;20188;-89
2022/09/12 03:58:29;;;;;;;0.97;0.93;;;10.00;99.90;;;;;;5023772;28;20324;-86
2022/09/12 04:00:55;;;;;;;0.73;0.73;;;;;;;;;;5023387;28;20222;-88
2022/09/12 04:03:21;;;;;;;0.80;0.80;;;;;;;;;;5027985;28;20188;-87
2022/09/12 04:05:47;;;;;;;1.23;0.80;;;10.40;99.90;;;;;;5017629;28;20213;-87
2022/09/12 04:08:13;;;;;;;1.00;0.87;;;;;;;;;;5019947;28;20610;-87
2022/09/12 04:10:39;;;;;;;1.07;0.90;;;9.60;99.90;;;;;;5023296;28;20193;-86
2022/09/12 04:13:05;;;;;;;0.60;0.60;;;;;;;;;;5016302;28;20190;-86
2022/09/12 04:15:31;;;;;;;0.73;0.73;;;10.10;99.90;;;;;;5022677;28;20195;-85
2022/09/12 04:17:57;;;;;;;0.80;0.80;;;;;;;;;;5023384;28;20189;-87
2022/09/12 04:20:23;;;;;;;0.77;0.77;;;9.60;99.90;;;;;;5012521;28;20216;-87
2022/09/12 04:22:49;;;;;;;0.80;0.80;;;9.90;99.90;;;;;;5012102;28;20192;-87
2022/09/12 04:25:14;;;;;;;1.30;0.97;;;10.10;99.90;;;;;;5016708;28;20184;-86
2022/09/12 04:27:40;;;;;;;0.87;0.63;;;;;;;;;;5016464;28;20193;-85
2022/09/12 04:30:07;;;;;;;0.67;0.63;;;10.00;99.90;;;;;;5012490;28;20189;-85
2022/09/12 04:32:33;;;;;;;0.80;0.80;;;10.20;99.90;;;;;;5043886;28;20191;-88
2022/09/12 04:34:59;;;;;;;0.73;0.73;;;;;;;;;;5035184;28;20530;-86
2022/09/12 04:37:25;;;;;;;1.70;0.60;;;10.10;99.90;;;;;;5029039;28;20653;-85
2022/09/12 04:39:54;;;;;;;0.60;0.60;;;10.00;99.90;;;;;;5026475;28;20217;-85
2022/09/12 04:42:20;;;;;;;1.23;0.93;;;;;;;;;;5030646;28;20189;-86
2022/09/12 04:44:47;;;;;;;0.47;0.47;;;10.00;99.90;;;;;;5030298;28;20210;-86
2022/09/12 04:47:13;;;;;;;0.70;0.70;;;10.10;99.90;;;;;;5020805;28;20193;-88
2022/09/12 04:49:39;;;;;;;0.50;0.50;;;;;;;;;;5004801;28;20719;-85
2022/09/12 04:52:05;;;;;;;0.60;0.60;;;;;;;;;;5023834;28;20189;-85
2022/09/12 04:54:31;;;;;;;0.50;0.50;;;;;;;;;;5046391;28;20184;-86
2022/09/12 04:56:57;;;;;;;0.70;0.70;;;;;;;;;;5050572;28;20227;-84
2022/09/12 04:59:23;;;;;;;0.80;0.80;;;10.10;99.90;;;;;;5046943;28;20223;-86
2022/09/12 05:01:50;;;;;;;0.63;0.63;;;;;;;;;;5060528;28;20204;-86
2022/09/12 05:04:16;;;;;;;0.73;0.70;;;9.90;99.90;;;;;;5031855;28;20184;-86
2022/09/12 05:06:42;;;;;;;0.93;0.60;;;;;;;;;;5042390;28;20610;-86
2022/09/12 05:09:10;;;;;;;0.67;0.67;;;10.00;99.90;;;;;;5042797;28;20191;-85
2022/09/12 05:11:38;;;;;;;2.17;1.00;;;10.10;99.90;;;;;;5043275;28;20267;-87
2022/09/12 05:14:03;;;;;;;0.70;0.70;;;10.30;99.90;;;;;;5042746;28;20175;-86
2022/09/12 05:16:30;;;;;;;0.93;0.90;;;;;;;;;;5043285;28;20180;-86
2022/09/12 05:18:57;;;;;;;0.82;0.60;;;10.10;99.90;;;;;;5039510;28;20181;-85
2022/09/12 05:21:23;;;;;;;0.57;0.57;;;10.30;99.90;;;;;;5042704;28;20203;-86
2022/09/12 05:23:53;;;;;;;0.63;0.50;;;10.40;99.90;;;;;;5041824;28;20552;-86
2022/09/12 05:26:21;;;;;;;0.50;0.50;;;10.00;99.90;;;;;;5039384;28;20176;-87
2022/09/12 05:28:48;;;;;;;0.47;0.47;;;10.40;99.90;;;;;;5042192;28;20543;-88
2022/09/12 05:31:27;;;;;;;0.53;0.53;;;10.30;99.90;;;;;;5039927;28;20204;-88
2022/09/12 05:33:54;;;;;;;1.23;0.87;;;10.00;99.90;;;;;;5057690;28;20269;-87
2022/09/12 05:36:23;;;;;;;0.30;0.30;;;10.40;99.90;;;;;;5037947;28;20215;-86
2022/09/12 05:38:48;;;;;;;0.80;0.80;;;10.30;99.90;;;;;;5041368;28;20211;-87
2022/09/12 05:41:17;;;;;;;1.10;0.63;;;10.30;99.90;;;;;;5041153;28;20923;-86
2022/09/12 05:43:44;;;;;;;0.50;0.50;;;10.20;99.90;;;;;;5040862;28;20192;-86
2022/09/12 05:46:15;;;;;;;0.50;0.50;;;10.20;99.90;;;;;;5038881;28;20180;-86
2022/09/12 05:48:43;;;;;;;1.00;0.80;;;9.90;99.90;;;;;;5038411;28;20203;-86
2022/09/12 05:51:18;;;;;;;0.90;0.90;;;10.20;99.90;;;;;;5041066;28;20176;-86
2022/09/12 05:53:45;;;;;;;0.97;0.60;;;10.20;99.90;;;;;;5042421;28;20172;-87
2022/09/12 05:56:14;;;;;;;0.70;0.70;;;10.40;99.90;;;;;;5047469;28;20195;-85
2022/09/12 05:58:46;;;;;;;0.63;0.63;;;10.30;99.90;;;;;;5041483;28;20223;-85
2022/09/12 06:01:14;;;;;;;1.43;0.80;;;10.20;99.90;;;;;;5049463;28;20567;-86
2022/09/12 06:03:43;;;;;;;0.43;0.43;;;9.80;99.90;;;;;;5041044;28;20680;-85
2022/09/12 06:06:12;;;;;;;0.55;0.55;;;10.10;99.90;;;;;;5045526;28;20853;-84
2022/09/12 06:08:39;;;;;;;0.50;0.50;;;10.20;99.90;;;;;;5035348;28;20183;-85
2022/09/12 06:11:06;;;;;;;0.37;0.37;;;10.40;99.90;;;;;;5050648;28;20191;-85
2022/09/12 06:13:35;;;;;;;0.80;0.80;;;10.30;99.90;;;;;;5047065;28;20184;-85
2022/09/12 06:16:07;;;;;;;1.60;1.02;;;9.70;99.90;;;;;;5041659;28;20184;-85
2022/09/12 06:18:34;;;;;;;1.33;0.80;;;10.40;99.90;;;;;;5035682;28;20176;-87
2022/09/12 06:21:04;;;;;;;0.63;0.63;;;10.30;99.90;;;;;;5040616;28;20203;-86
2022/09/12 06:23:31;;;;;;;2.03;1.30;;;;;;;;;;5051162;28;20190;-87
2022/09/12 06:25:57;;;;;;;0.47;0.47;;;10.10;99.90;;;;;;5039306;28;20189;-86
2022/09/12 06:28:23;;;;;;;0.50;0.50;;;10.30;99.90;;;;;;5054462;28;20223;-86
2022/09/12 06:30:49;;;;;;;0.63;0.63;;;;;;;;;;5060733;28;20302;-85
2022/09/12 06:33:16;;;;;;;2.10;0.77;;;10.30;99.90;;;;;;5057188;28;20186;-87
2022/09/12 06:35:42;;;;;;;0.50;0.50;;;10.60;99.90;;;;;;5057831;28;20687;-87
2022/09/12 06:38:08;;;;;;;0.60;0.60;;;;;;;;;;5057007;28;20184;-86
2022/09/12 06:40:34;;;;;;;0.50;0.50;;;10.10;99.90;;;;;;5057579;28;20199;-88
2022/09/12 06:43:00;;;;;;;0.97;0.83;;;10.50;99.90;;;;;;5056706;28;20226;-86
2022/09/12 06:45:26;;;;;;;0.53;0.53;;;;;;;;;;5054188;28;20633;-87
2022/09/12 06:47:52;;;;;;;0.75;0.75;;;10.40;99.90;;;;;;5056057;28;20191;-86
2022/09/12 06:50:18;;;;;;;0.83;0.83;;;;;;;;;;5054273;28;20191;-87
2022/09/12 06:52:44;;;;;;;0.57;0.57;;;;;;;;;;5055360;28;20187;-84
2022/09/12 06:55:10;;;;;;;0.83;0.83;;;;;;;;;;5054210;28;20542;-86
2022/09/12 06:57:37;;;;;;;0.70;0.70;;;10.50;99.90;;;;;;5055386;28;20190;-85
2022/09/12 07:00:07;;;;;;;0.40;0.40;;;10.50;99.90;;;;;;5038286;28;20307;-87
2022/09/12 07:02:33;;;;;;;0.87;0.87;;;10.20;99.90;;;;;;5055307;28;20645;-86
2022/09/12 07:04:58;;;;;;;0.93;0.85;;;10.60;99.90;;;;;;5054485;28;20184;-86
2022/09/12 07:07:24;;;;;;;1.07;1.07;;;10.50;99.90;;;;;;5037176;28;20182;-86
2022/09/12 07:09:49;;;;;;;0.70;0.70;;;10.10;99.90;;;;;;5055303;28;20190;-86
2022/09/12 07:12:15;;;;;;;1.03;0.97;;;10.40;99.90;;;;;;5054078;28;20577;-85
2022/09/12 07:14:41;;;;;;;0.77;0.77;;;10.40;99.90;;;;;;5055109;28;20262;-85
2022/09/12 07:17:07;;;;;;;1.63;0.80;;;;;;;;;;5054510;28;20536;-88
2022/09/12 07:19:33;;;;;;;1.00;0.93;;;10.70;99.90;;;;;;5053829;28;20183;-85
2022/09/12 07:21:59;;;;;;;0.67;0.63;;;10.30;99.90;;;;;;5053853;28;20598;-85
2022/09/12 07:24:25;;;;;;;0.55;0.55;;;10.40;99.90;;;;;;5054851;28;20180;-85
2022/09/12 07:26:51;;;;;;;0.63;0.63;;;11.60;99.90;;;;;;5054057;28;20180;-86
2022/09/12 07:29:16;;;;;;;0.63;0.60;;;10.30;99.90;;;;;;5054708;28;20652;-85
2022/09/12 07:31:43;;;;;;;0.70;0.70;;;;;;;;;;5041496;28;20191;-84
2022/09/12 07:34:08;;;;;;;0.68;0.68;;;10.50;99.90;;;;;;5034924;28;20192;-86
2022/09/12 07:36:35;;;;;;;0.85;0.85;;;;;;;;;;5034332;28;20172;-86
2022/09/12 07:39:01;;;;;;;1.33;1.23;;;10.40;99.90;;;;;;5033999;28;20192;-84
2022/09/12 07:41:28;;;;;;;0.90;0.90;;;10.70;99.90;;;;;;5040781;28;20206;-86
2022/09/12 07:43:56;;;;;;;1.85;1.10;;;10.50;99.90;;;;;;5040027;28;20183;-86
2022/09/12 07:46:23;;;;;;;1.17;1.07;;;10.70;99.90;;;;;;5034805;28;20183;-86
2022/09/12 07:48:53;;;;;;;3.67;2.17;;;10.30;99.90;;;;;;5034841;28;20173;-86
2022/09/12 07:51:19;;;;;;;1.97;1.10;;;10.40;99.90;;;;;;5033958;28;20177;-85
2022/09/12 07:53:46;;;;;;;1.35;0.90;;;10.50;99.90;;;;;;5034652;28;20184;-85
2022/09/12 07:56:12;;;;;;;1.13;0.80;;;10.60;99.90;;;;;;5039429;28;20258;-84
2022/09/12 07:58:40;;;;;;;1.30;1.20;;;11.10;99.90;;;;;;5052586;28;20259;-84
2022/09/12 08:01:08;;;;;;;0.70;0.70;;;11.20;99.90;;;;;;5054138;28;20200;-84
2022/09/12 08:03:37;;;;;;;0.75;0.75;;;11.00;99.90;;;;;;5054041;28;20246;-84
2022/09/12 08:06:09;;;;;;;4.30;1.10;;;10.50;99.90;;;;;;5052968;28;20183;-84
2022/09/12 08:08:35;;;;;;;1.27;1.17;;;10.50;99.90;;;;;;5053979;28;20184;-84
2022/09/12 08:11:04;;;;;;;0.97;0.97;;;10.60;99.90;;;;;;5054157;28;20241;-84
2022/09/12 08:13:32;;;;;;;0.60;0.60;;;10.50;99.90;;;;;;5053781;28;20176;-84
2022/09/12 08:16:04;;;;;;;1.15;1.05;;;10.40;99.90;;;;;;5053086;28;20241;-84
2022/09/12 08:18:31;;;;;;;1.67;1.33;;;10.40;99.90;;;;;;5052201;28;20644;-84
2022/09/12 08:21:05;;;;;;;2.08;0.95;;;10.70;99.90;;;;;;5053762;28;20214;-84
2022/09/12 08:23:31;;;;;;;1.15;1.10;;;10.90;99.90;;;;;;5053698;28;20171;-84
2022/09/12 08:26:00;;;;;;;1.65;1.38;;;10.90;99.90;;;;;;5053555;28;20183;-84
2022/09/12 08:28:26;;;;;;;0.70;0.70;;;11.10;99.90;;;;;;5053223;28;20179;-84
2022/09/12 08:30:53;;;;;;;2.08;0.98;;;10.70;99.90;;;;;;5053701;28;20184;-84
2022/09/12 08:33:19;;;;;;;2.72;1.33;;;10.60;99.90;;;;;;5053284;28;20262;-84
2022/09/12 08:35:45;;;;;;;1.13;1.10;;;10.80;99.90;;;;;;5043415;28;20190;-84
2022/09/12 08:38:11;;;;;;;0.80;0.77;;;10.60;99.90;;;;;;5035204;28;20533;-84
2022/09/12 08:41:17;;;;;;;2.47;0.87;;;10.90;99.90;;;;;;5051333;28;20214;-85
2022/09/12 08:44:20;;;;;;;1.40;1.30;;;10.90;99.90;;;;;;5012994;28;20173;-85
2022/09/12 08:46:50;;;;;;;2.00;1.13;;;10.60;99.90;;;;;;5031317;28;20176;-84
2022/09/12 08:49:32;;;;;;;2.13;1.50;;;10.80;99.90;;;;;;5033347;28;20695;-84
2022/09/12 08:52:00;;;;;;;1.00;1.00;;;10.90;99.90;;;;;;5045798;28;20238;-83
2022/09/12 08:54:28;;;;;;;2.45;1.00;;;10.70;99.90;;;;;;5041628;28;20268;-85
2022/09/12 08:57:02;;;;;;;2.03;1.30;;;11.20;99.90;;;;;;5038969;28;20169;-84
2022/09/12 08:59:47;;;;;;;1.30;1.20;;;11.00;99.90;;;;;;5040608;28;20228;-85
2022/09/12 09:02:31;;;;;;;0.88;0.88;;;12.50;99.90;;;;;;5033969;28;20219;-84
2022/09/12 09:05:03;;;;;;;1.73;0.70;;;11.20;99.90;;;;;;5037557;28;20176;-84
2022/09/12 09:08:07;;;;;;;1.48;1.35;;;11.00;99.90;;;;;;5043088;28;20637;-84
2022/09/12 09:10:45;;;;;;;0.80;0.80;;;11.20;99.90;;;;;;5041494;28;20186;-84
2022/09/12 09:16:41;;;;;;;0.90;0.90;;;11.10;99.90;;;;;;5024357;28;20179;-84
2022/09/12 09:19:20;;;;;;;1.10;1.00;;;11.10;99.90;;;;;;5034173;28;20188;-86
2022/09/12 09:22:02;;;;;;;0.75;0.75;;;11.20;99.90;;;;;;5039524;28;20611;-85
2022/09/12 09:24:44;;;;;;;1.55;1.30;;;11.20;99.90;;;;;;5039747;28;20181;-85
2022/09/12 09:27:23;;;;;;;1.73;1.15;;;11.50;99.90;;;;;;5041984;28;20172;-85
2022/09/12 09:29:53;;;;;;;1.10;1.10;;;11.20;99.90;;;;;;5045709;28;20164;-86
2022/09/12 09:32:34;;;;;;;1.17;1.08;;;11.20;99.90;;;;;;5046271;28;20165;-85
2022/09/12 09:35:13;;;;;;;1.10;1.02;;;10.70;99.90;;;;;;5041956;28;20160;-85
2022/09/12 09:37:52;;;;;;;1.58;1.25;;;11.30;99.90;;;;;;5031691;28;20198;-86
2022/09/12 09:40:29;;;;;;;3.85;1.20;;;11.40;99.90;;;;;;5032769;28;20569;-85
2022/09/12 09:42:55;;;;;;;0.80;0.80;;;11.20;99.90;;;;;;5035179;28;20551;-85
2022/09/12 09:45:23;;;;;;;1.35;1.00;;;11.30;99.90;;;;;;5044895;28;20222;-84
2022/09/12 09:47:58;;;;;;;0.93;0.90;;;11.40;99.90;;;;;;5044711;28;20199;-87
2022/09/12 09:50:25;;;;;;;1.38;1.27;;;;;;;;;;5043820;28;20253;-85
2022/09/12 09:52:53;;;;;;;1.08;1.00;;;11.40;99.90;;;;;;5025312;28;20195;-87
2022/09/12 09:55:24;;;;;;;1.98;1.42;;;11.70;99.90;;;;;;5039643;28;20205;-85
2022/09/12 09:57:51;;;;;;;1.67;1.25;;;10.90;99.90;;;;;;5017203;28;20237;-85
2022/09/12 10:00:25;;;;;;;1.30;1.08;;;11.50;99.90;;;;;;5050307;28;20215;-86
2022/09/12 10:03:08;;;;;;;0.93;0.93;;;11.20;99.90;;;;;;5055577;28;20187;-84
2022/09/12 10:05:54;;;;;;;1.95;1.45;;;11.20;99.90;;;;;;5056110;28;20170;-89
2022/09/12 10:08:25;;;;;;;1.63;1.40;;;11.80;99.90;;;;;;5056572;28;20186;-87
2022/09/12 10:11:01;;;;;;;1.50;1.40;;;11.50;99.90;;;;;;5059191;28;20608;-86
2022/09/12 10:13:32;;;;;;;1.70;1.20;;;12.00;99.90;;;;;;5065026;28;20208;-88
2022/09/12 10:16:02;;;;;;;3.38;1.98;;;11.80;99.90;;;;;;5060514;28;20167;-89
2022/09/12 10:18:39;;;;;;;1.50;1.40;;;11.90;99.90;;;;;;5040724;28;20711;-86
2022/09/12 10:21:20;;;;;;;1.10;0.95;;;11.20;99.90;;;;;;5042925;28;20273;-87
2022/09/12 10:23:50;;;;;;;1.25;0.75;;;11.80;99.90;;;;;;5043712;28;20560;-89
2022/09/12 10:26:20;;;;;;;1.67;1.30;;;11.60;99.90;;;;;;5045187;28;20191;-85
2022/09/12 10:28:54;;;;;;;1.55;1.40;;;11.90;99.90;;;;;;5042369;28;20267;-87
2022/09/12 10:31:34;;;;;;;1.90;1.50;;;12.00;99.90;;;;;;5044559;28;20203;-88
2022/09/12 10:34:00;;;;;;;1.52;1.35;;;11.80;99.90;;;;;;5044445;28;20164;-87
2022/09/12 10:36:38;;;;;;;1.20;1.00;;;11.80;99.90;;;;;;5044243;28;20181;-86
2022/09/12 10:39:04;;;;;;;2.13;0.90;;;11.80;99.90;;;;;;5042820;28;20185;-86
2022/09/12 10:41:39;;;;;;;1.35;1.25;;;11.80;99.90;;;;;;5042033;28;20201;-84
2022/09/12 10:44:16;;;;;;;1.10;1.00;;;12.30;99.90;;;;;;5043974;28;20293;-86
2022/09/12 10:46:41;;;;;;;1.55;1.45;;;12.20;99.90;;;;;;5040612;28;20540;-86
2022/09/12 10:49:26;;;;;;;1.35;1.25;;;12.00;99.90;;;;;;5044432;28;20177;-85
2022/09/12 10:51:53;;;;;;;1.13;0.98;;;12.10;99.90;;;;;;5045103;28;20180;-85
2022/09/12 10:54:22;;;;;;;5.43;1.08;;;12.20;99.90;;;;;;5044060;28;20184;-84
2022/09/12 10:57:11;;;;;;;2.30;1.45;;;12.20;99.90;;;;;;5043487;28;20278;-84
2022/09/12 11:00:00;;;;;;;1.40;1.02;;;12.50;99.90;;;;;;5037512;28;20227;-84
2022/09/12 11:02:47;;;;;;;1.52;1.05;;;12.10;99.90;;;;;;5043669;28;20234;-85
2022/09/12 11:05:36;;;;;;;1.10;1.08;;;12.70;99.90;;;;;;5047181;28;20179;-84
2022/09/12 11:08:16;;;;;;;0.90;0.90;;;12.40;99.90;;;;;;5033660;28;20802;-84
2022/09/12 11:11:00;;;;;;;3.28;1.42;;;12.10;99.90;;;;;;5035002;28;20160;-85
2022/09/12 11:13:44;;;;;;;1.42;1.17;;;12.40;99.90;;;;;;5034110;28;20639;-85
2022/09/12 11:16:42;;;;;;;1.25;0.80;;;12.40;99.90;;;;;;5034341;28;20539;-84
2022/09/12 11:19:11;;;;;;;1.38;1.20;;;12.40;99.90;;;;;;5033984;28;20199;-85
2022/09/12 11:22:11;;;;;;;0.82;0.80;;;12.40;99.90;;;;;;5035168;28;20196;-84
2022/09/12 11:24:42;;;;;;;1.40;1.30;;;12.40;99.90;;;;;;5035275;28;20191;-85
2022/09/12 11:27:16;;;;;;;1.40;1.17;;;12.50;99.90;;;;;;5035550;28;20188;-84
2022/09/12 11:29:57;;;;;;;1.30;1.20;;;12.40;99.90;;;;;;5035826;28;20172;-85
2022/09/12 11:32:55;;;;;;;1.23;1.13;;;12.70;99.90;;;;;;5035480;28;20173;-85
2022/09/12 11:35:36;;;;;;;0.73;0.73;;;12.60;99.90;;;;;;5033690;28;20189;-86
2022/09/12 11:38:08;;;;;;;1.85;1.65;;;13.10;99.90;;;;;;5033644;28;20195;-86
2022/09/12 11:40:43;;;;;;;2.25;1.27;;;12.80;99.90;;;;;;5034718;28;20228;-86
2022/09/12 11:43:43;;;;;;;1.00;1.00;;;12.90;99.90;;;;;;5035134;28;20207;-86
2022/09/12 11:46:12;;;;;;;1.25;1.17;;;12.60;99.90;;;;;;5039678;28;20199;-85
2022/09/12 11:48:54;;;;;;;1.00;0.93;;;13.10;99.90;;;;;;5037013;28;20193;-86
2022/09/12 11:51:28;;;;;;;1.52;1.42;;;13.10;99.90;;;;;;5042515;28;20168;-85
2022/09/12 11:54:05;;;;;;;1.48;1.08;;;12.60;99.90;;;;;;5043860;28;20180;-86
2022/09/12 11:56:34;;;;;;;4.88;1.55;;;12.80;99.90;;;;;;5037302;28;20172;-86
2022/09/12 11:59:14;;;;;;;1.75;1.08;;;13.00;99.90;;;;;;5040999;28;20270;-86
2022/09/12 12:01:43;;;;;;;1.02;1.02;;;12.90;99.90;;;;;;5045875;28;20269;-86
2022/09/12 12:04:11;;;;;;;1.52;1.42;;;13.00;99.90;;;;;;5037883;28;20188;-85
2022/09/12 12:07:00;;;;;;;2.83;1.40;;;12.90;99.90;;;;;;5034137;28;20238;-87
2022/09/12 12:09:26;;;;;;;1.90;1.10;;;12.90;99.90;;;;;;5033707;28;20184;-86
2022/09/12 12:11:56;;;;;;;1.48;0.98;;;13.20;99.90;;;;;;5032884;28;20168;-87
2022/09/12 12:14:28;;;;;;;1.70;1.38;;;12.90;99.90;;;;;;5034284;28;20169;-85
2022/09/12 12:16:54;;;;;;;1.63;1.52;;;12.90;99.90;;;;;;5033469;28;20219;-86
2022/09/12 12:19:32;;;;;;;1.40;1.30;;;12.80;99.90;;;;;;5034625;28;20204;-87
2022/09/12 12:22:06;;;;;;;0.90;0.73;;;12.90;99.90;;;;;;5033229;28;20652;-86
2022/09/12 12:24:36;;;;;;;2.33;1.77;;;12.60;99.90;;;;;;5034436;28;20160;-86
2022/09/12 12:27:04;;;;;;;1.25;0.98;;;12.80;99.90;;;;;;5031874;28;20184;-87
2022/09/12 12:29:41;;;;;;;1.70;1.60;;;12.60;99.90;;;;;;5033226;28;20215;-86
2022/09/12 12:32:09;;;;;;;1.15;1.05;;;12.70;99.90;;;;;;5032850;28;20184;-86
2022/09/12 12:34:46;;;;;;;2.60;1.33;;;12.90;99.90;;;;;;5038869;28;20179;-86
2022/09/12 12:37:20;;;;;;;1.20;1.10;;;14.00;99.90;;;;;;5053634;28;20199;-87
2022/09/12 12:39:49;;;;;;;1.88;1.35;;;12.90;99.90;;;;;;5053098;28;20175;-86
2022/09/12 12:42:33;;;;;;;1.58;1.48;;;12.80;99.90;;;;;;5050802;28;20186;-86
2022/09/12 12:45:03;;;;;;;1.20;1.10;;;12.70;99.90;;;;;;5040718;28;20905;-89
2022/09/12 12:47:38;;;;;;;1.23;1.10;;;12.70;99.90;;;;;;5043409;28;20172;-85
2022/09/12 12:50:06;;;;;;;3.15;1.70;;;12.70;99.90;;;;;;5053273;28;20183;-83
2022/09/12 12:53:03;;;;;;;1.10;1.00;;;12.80;99.90;;;;;;5053926;28;20230;-87
2022/09/12 12:55:45;;;;;;;3.83;2.03;;;13.00;99.90;;;;;;5047441;28;20198;-87
2022/09/12 12:58:32;;;;;;;3.55;1.65;;;12.60;99.90;;;;;;5053067;28;20227;-87
2022/09/12 13:01:17;;;;;;;0.80;0.80;;;13.00;99.90;;;;;;5052791;28;20203;-87
2022/09/12 13:03:55;;;;;;;1.10;0.98;;;12.90;99.90;;;;;;5045151;28;20188;-88
2022/09/12 13:06:30;;;;;;;1.20;1.10;;;12.90;99.90;;;;;;5051067;28;20180;-86
2022/09/12 13:09:04;;;;;;;1.52;1.08;;;12.70;99.90;;;;;;5052320;28;20260;-86
2022/09/12 13:11:36;;;;;;;2.22;1.55;;;13.10;99.90;;;;;;5053030;28;20228;-86
2022/09/12 13:14:05;;;;;;;0.98;0.98;;;13.00;99.90;;;;;;5054060;28;20679;-87
2022/09/12 13:16:37;;;;;;;1.40;1.30;;;13.20;99.90;;;;;;5052284;28;20183;-86
2022/09/12 13:19:11;;;;;;;1.13;1.10;;;13.20;99.90;;;;;;5053825;28;20175;-86
2022/09/12 13:21:37;;;;;;;1.23;1.13;;;12.60;99.90;;;;;;5051157;28;20593;-85
2022/09/12 13:24:12;;;;;;;1.00;0.90;;;13.00;99.90;;;;;;5050777;28;20321;-86
2022/09/12 13:26:43;;;;;;;1.45;0.65;;;12.90;99.90;;;;;;5052497;28;20216;-86
2022/09/12 13:29:11;;;;;;;2.20;2.00;;;13.10;99.90;;;;;;5050767;28;20171;-86